sensor_id;sensor_type;location;lat;lon;timestamp;P1;durP1;ratioP1;P2;durP2;ratioP2
39324;SDS011;25037;49.488;9.900;2022-11-30T00:00:00;27.98;;;18.90;;
39324;SDS011;25037;49.488;9.900;2022-11-30T00:02:26;32.22;;;18.70;;
39324;SDS011;25037;49.488;9.900;2022-11-30T00:04:54;28.98;;;18.52;;
39324;SDS011;25037;49.488;9.900;2022-11-30T00:07:21;32.30;;;20.85;;
39324;SDS011;25037;49.488;9.900;2022-11-30T00:09:47;33.10;;;19.67;;
39324;SDS011;25037;49.488;9.900;2022-11-30T00:12:13;33.05;;;20.42;;
39324;SDS011;25037;49.488;9.900;2022-11-30T00:14:38;35.22;;;19.63;;
39324;SDS011;25037;49.488;9.900;2022-11-30T00:17:04;30.85;;;19.55;;
39324;SDS011;25037;49.488;9.900;2022-11-30T00:19:29;34.42;;;20.65;;
39324;SDS011;25037;49.488;9.900;2022-11-30T00:21:55;34.13;;;21.27;;
39324;SDS011;25037;49.488;9.900;2022-11-30T00:24:20;32.63;;;19.50;;
39324;SDS011;25037;49.488;9.900;2022-11-30T00:26:46;34.03;;;21.00;;
39324;SDS011;25037;49.488;9.900;2022-11-30T00:29:11;34.15;;;19.70;;
39324;SDS011;25037;49.488;9.900;2022-11-30T00:31:37;31.05;;;19.80;;
39324;SDS011;25037;49.488;9.900;2022-11-30T00:34:02;35.33;;;20.55;;
39324;SDS011;25037;49.488;9.900;2022-11-30T00:36:28;34.95;;;19.15;;
39324;SDS011;25037;49.488;9.900;2022-11-30T00:38:54;31.42;;;19.40;;
39324;SDS011;25037;49.488;9.900;2022-11-30T00:41:20;34.47;;;20.48;;
39324;SDS011;25037;49.488;9.900;2022-11-30T00:43:45;31.38;;;19.42;;
39324;SDS011;25037;49.488;9.900;2022-11-30T00:46:11;31.10;;;19.85;;
39324;SDS011;25037;49.488;9.900;2022-11-30T00:48:37;34.17;;;20.80;;
39324;SDS011;25037;49.488;9.900;2022-11-30T00:51:03;31.80;;;19.70;;
39324;SDS011;25037;49.488;9.900;2022-11-30T00:53:29;35.42;;;20.08;;
39324;SDS011;25037;49.488;9.900;2022-11-30T00:55:55;31.65;;;18.27;;
39324;SDS011;25037;49.488;9.900;2022-11-30T00:58:20;28.98;;;18.33;;
39324;SDS011;25037;49.488;9.900;2022-11-30T01:00:46;32.72;;;20.50;;
39324;SDS011;25037;49.488;9.900;2022-11-30T01:03:12;27.83;;;18.58;;
39324;SDS011;25037;49.488;9.900;2022-11-30T01:05:38;30.00;;;18.52;;
39324;SDS011;25037;49.488;9.900;2022-11-30T01:08:05;30.55;;;20.02;;
39324;SDS011;25037;49.488;9.900;2022-11-30T01:10:32;34.42;;;21.15;;
39324;SDS011;25037;49.488;9.900;2022-11-30T01:12:59;36.15;;;20.60;;
39324;SDS011;25037;49.488;9.900;2022-11-30T01:15:25;35.53;;;20.88;;
39324;SDS011;25037;49.488;9.900;2022-11-30T01:17:50;34.83;;;19.67;;
39324;SDS011;25037;49.488;9.900;2022-11-30T01:20:16;35.05;;;20.60;;
39324;SDS011;25037;49.488;9.900;2022-11-30T01:22:42;37.95;;;20.38;;
39324;SDS011;25037;49.488;9.900;2022-11-30T01:25:07;34.00;;;20.48;;
39324;SDS011;25037;49.488;9.900;2022-11-30T01:27:33;34.88;;;20.13;;
39324;SDS011;25037;49.488;9.900;2022-11-30T01:29:58;35.53;;;20.23;;
39324;SDS011;25037;49.488;9.900;2022-11-30T01:32:24;39.63;;;20.73;;
39324;SDS011;25037;49.488;9.900;2022-11-30T01:34:50;33.92;;;20.35;;
39324;SDS011;25037;49.488;9.900;2022-11-30T01:37:15;34.67;;;19.05;;
39324;SDS011;25037;49.488;9.900;2022-11-30T01:39:41;34.58;;;19.90;;
39324;SDS011;25037;49.488;9.900;2022-11-30T01:42:12;33.83;;;19.42;;
39324;SDS011;25037;49.488;9.900;2022-11-30T01:44:48;34.00;;;19.92;;
39324;SDS011;25037;49.488;9.900;2022-11-30T01:47:13;35.13;;;19.90;;
39324;SDS011;25037;49.488;9.900;2022-11-30T01:49:40;33.80;;;19.02;;
39324;SDS011;25037;49.488;9.900;2022-11-30T01:52:22;36.10;;;19.42;;
39324;SDS011;25037;49.488;9.900;2022-11-30T01:54:57;36.10;;;19.80;;
39324;SDS011;25037;49.488;9.900;2022-11-30T01:57:49;33.53;;;18.95;;
39324;SDS011;25037;49.488;9.900;2022-11-30T02:00:18;34.75;;;19.23;;
39324;SDS011;25037;49.488;9.900;2022-11-30T02:05:28;38.17;;;21.33;;
39324;SDS011;25037;49.488;9.900;2022-11-30T02:07:54;36.28;;;18.95;;
39324;SDS011;25037;49.488;9.900;2022-11-30T02:10:22;36.20;;;19.65;;
39324;SDS011;25037;49.488;9.900;2022-11-30T02:15:46;31.33;;;19.38;;
39324;SDS011;25037;49.488;9.900;2022-11-30T02:18:13;33.67;;;18.63;;
39324;SDS011;25037;49.488;9.900;2022-11-30T02:20:49;34.30;;;17.10;;
39324;SDS011;25037;49.488;9.900;2022-11-30T02:28:56;35.63;;;18.77;;
39324;SDS011;25037;49.488;9.900;2022-11-30T02:31:53;31.97;;;19.13;;
39324;SDS011;25037;49.488;9.900;2022-11-30T02:34:20;29.75;;;18.08;;
39324;SDS011;25037;49.488;9.900;2022-11-30T02:36:49;29.77;;;17.55;;
39324;SDS011;25037;49.488;9.900;2022-11-30T02:39:16;34.60;;;19.27;;
39324;SDS011;25037;49.488;9.900;2022-11-30T02:41:45;30.30;;;18.88;;
39324;SDS011;25037;49.488;9.900;2022-11-30T02:44:11;29.92;;;16.80;;
39324;SDS011;25037;49.488;9.900;2022-11-30T02:46:43;33.00;;;17.90;;
39324;SDS011;25037;49.488;9.900;2022-11-30T02:51:51;30.77;;;17.00;;
39324;SDS011;25037;49.488;9.900;2022-11-30T02:54:19;32.50;;;18.95;;
39324;SDS011;25037;49.488;9.900;2022-11-30T02:56:45;32.10;;;17.75;;
39324;SDS011;25037;49.488;9.900;2022-11-30T02:59:10;31.70;;;18.15;;
39324;SDS011;25037;49.488;9.900;2022-11-30T03:01:36;32.78;;;18.20;;
39324;SDS011;25037;49.488;9.900;2022-11-30T03:04:03;30.63;;;16.35;;
39324;SDS011;25037;49.488;9.900;2022-11-30T03:06:28;29.92;;;17.98;;
39324;SDS011;25037;49.488;9.900;2022-11-30T03:08:54;31.63;;;18.10;;
39324;SDS011;25037;49.488;9.900;2022-11-30T03:11:19;36.28;;;17.73;;
39324;SDS011;25037;49.488;9.900;2022-11-30T03:13:45;34.55;;;18.65;;
39324;SDS011;25037;49.488;9.900;2022-11-30T03:16:11;36.95;;;19.73;;
39324;SDS011;25037;49.488;9.900;2022-11-30T03:18:37;36.42;;;19.25;;
39324;SDS011;25037;49.488;9.900;2022-11-30T03:21:05;36.88;;;19.00;;
39324;SDS011;25037;49.488;9.900;2022-11-30T03:23:32;38.35;;;18.83;;
39324;SDS011;25037;49.488;9.900;2022-11-30T03:25:58;37.88;;;17.88;;
39324;SDS011;25037;49.488;9.900;2022-11-30T03:28:24;38.15;;;19.55;;
39324;SDS011;25037;49.488;9.900;2022-11-30T03:30:50;36.03;;;19.88;;
39324;SDS011;25037;49.488;9.900;2022-11-30T03:33:15;39.15;;;20.33;;
39324;SDS011;25037;49.488;9.900;2022-11-30T03:35:42;39.85;;;20.67;;
39324;SDS011;25037;49.488;9.900;2022-11-30T03:38:08;39.47;;;20.00;;
39324;SDS011;25037;49.488;9.900;2022-11-30T03:40:34;33.38;;;17.92;;
39324;SDS011;25037;49.488;9.900;2022-11-30T03:43:01;36.00;;;19.75;;
39324;SDS011;25037;49.488;9.900;2022-11-30T03:45:26;34.17;;;18.25;;
39324;SDS011;25037;49.488;9.900;2022-11-30T03:47:52;39.05;;;20.17;;
39324;SDS011;25037;49.488;9.900;2022-11-30T03:50:17;39.28;;;19.52;;
39324;SDS011;25037;49.488;9.900;2022-11-30T03:52:43;44.55;;;20.83;;
39324;SDS011;25037;49.488;9.900;2022-11-30T03:55:09;39.78;;;19.15;;
39324;SDS011;25037;49.488;9.900;2022-11-30T03:57:34;39.78;;;20.80;;
39324;SDS011;25037;49.488;9.900;2022-11-30T04:00:00;40.70;;;19.60;;
39324;SDS011;25037;49.488;9.900;2022-11-30T04:02:26;35.58;;;19.73;;
39324;SDS011;25037;49.488;9.900;2022-11-30T04:04:51;41.33;;;20.92;;
39324;SDS011;25037;49.488;9.900;2022-11-30T04:07:17;36.30;;;19.88;;
39324;SDS011;25037;49.488;9.900;2022-11-30T04:09:42;37.58;;;19.80;;
39324;SDS011;25037;49.488;9.900;2022-11-30T04:12:08;41.28;;;20.05;;
39324;SDS011;25037;49.488;9.900;2022-11-30T04:14:33;39.28;;;19.45;;
39324;SDS011;25037;49.488;9.900;2022-11-30T04:16:59;33.30;;;18.60;;
39324;SDS011;25037;49.488;9.900;2022-11-30T04:19:24;36.55;;;20.23;;
39324;SDS011;25037;49.488;9.900;2022-11-30T04:21:50;37.00;;;20.17;;
39324;SDS011;25037;49.488;9.900;2022-11-30T04:24:16;37.05;;;19.52;;
39324;SDS011;25037;49.488;9.900;2022-11-30T04:26:41;34.30;;;19.38;;
39324;SDS011;25037;49.488;9.900;2022-11-30T04:29:07;36.20;;;18.92;;
39324;SDS011;25037;49.488;9.900;2022-11-30T04:31:32;38.33;;;20.40;;
39324;SDS011;25037;49.488;9.900;2022-11-30T04:33:58;37.10;;;20.55;;
39324;SDS011;25037;49.488;9.900;2022-11-30T04:36:24;37.97;;;20.45;;
39324;SDS011;25037;49.488;9.900;2022-11-30T04:38:49;33.55;;;19.27;;
39324;SDS011;25037;49.488;9.900;2022-11-30T04:41:15;39.17;;;21.40;;
39324;SDS011;25037;49.488;9.900;2022-11-30T04:43:40;35.80;;;19.58;;
39324;SDS011;25037;49.488;9.900;2022-11-30T04:46:06;34.28;;;19.88;;
39324;SDS011;25037;49.488;9.900;2022-11-30T04:48:31;36.55;;;18.80;;
39324;SDS011;25037;49.488;9.900;2022-11-30T04:51:01;34.90;;;20.52;;
39324;SDS011;25037;49.488;9.900;2022-11-30T04:53:27;36.25;;;20.50;;
39324;SDS011;25037;49.488;9.900;2022-11-30T04:55:53;35.63;;;19.77;;
39324;SDS011;25037;49.488;9.900;2022-11-30T04:58:19;36.42;;;19.35;;
39324;SDS011;25037;49.488;9.900;2022-11-30T05:00:44;35.72;;;20.75;;
39324;SDS011;25037;49.488;9.900;2022-11-30T05:03:10;33.47;;;18.70;;
39324;SDS011;25037;49.488;9.900;2022-11-30T05:05:35;40.00;;;20.67;;
39324;SDS011;25037;49.488;9.900;2022-11-30T05:08:01;34.58;;;19.40;;
39324;SDS011;25037;49.488;9.900;2022-11-30T05:10:27;33.53;;;20.65;;
39324;SDS011;25037;49.488;9.900;2022-11-30T05:12:52;36.50;;;21.00;;
39324;SDS011;25037;49.488;9.900;2022-11-30T05:15:18;36.30;;;20.05;;
39324;SDS011;25037;49.488;9.900;2022-11-30T05:17:44;36.50;;;20.52;;
39324;SDS011;25037;49.488;9.900;2022-11-30T05:20:09;33.15;;;19.77;;
39324;SDS011;25037;49.488;9.900;2022-11-30T05:22:35;38.35;;;20.67;;
39324;SDS011;25037;49.488;9.900;2022-11-30T05:25:01;35.28;;;19.60;;
39324;SDS011;25037;49.488;9.900;2022-11-30T05:27:27;38.70;;;21.20;;
39324;SDS011;25037;49.488;9.900;2022-11-30T05:29:52;39.20;;;20.35;;
39324;SDS011;25037;49.488;9.900;2022-11-30T05:32:18;36.55;;;20.08;;
39324;SDS011;25037;49.488;9.900;2022-11-30T05:34:43;40.80;;;22.02;;
39324;SDS011;25037;49.488;9.900;2022-11-30T05:37:09;38.63;;;21.15;;
39324;SDS011;25037;49.488;9.900;2022-11-30T05:39:35;37.60;;;21.73;;
39324;SDS011;25037;49.488;9.900;2022-11-30T05:42:00;35.67;;;20.95;;
39324;SDS011;25037;49.488;9.900;2022-11-30T05:44:26;40.20;;;21.40;;
39324;SDS011;25037;49.488;9.900;2022-11-30T05:46:51;38.42;;;21.83;;
39324;SDS011;25037;49.488;9.900;2022-11-30T05:49:17;39.17;;;22.25;;
39324;SDS011;25037;49.488;9.900;2022-11-30T05:51:42;36.85;;;22.42;;
39324;SDS011;25037;49.488;9.900;2022-11-30T05:54:08;41.17;;;23.05;;
39324;SDS011;25037;49.488;9.900;2022-11-30T05:56:33;38.30;;;23.13;;
39324;SDS011;25037;49.488;9.900;2022-11-30T05:58:59;38.58;;;21.63;;
39324;SDS011;25037;49.488;9.900;2022-11-30T06:01:28;36.47;;;21.17;;
39324;SDS011;25037;49.488;9.900;2022-11-30T06:03:54;38.45;;;20.02;;
39324;SDS011;25037;49.488;9.900;2022-11-30T06:06:21;33.92;;;19.13;;
39324;SDS011;25037;49.488;9.900;2022-11-30T06:08:47;29.98;;;18.65;;
39324;SDS011;25037;49.488;9.900;2022-11-30T06:11:13;29.08;;;18.70;;
39324;SDS011;25037;49.488;9.900;2022-11-30T06:13:40;29.40;;;18.88;;
39324;SDS011;25037;49.488;9.900;2022-11-30T06:16:06;26.67;;;17.42;;
39324;SDS011;25037;49.488;9.900;2022-11-30T06:18:32;28.95;;;19.40;;
39324;SDS011;25037;49.488;9.900;2022-11-30T06:21:02;25.73;;;16.42;;
39324;SDS011;25037;49.488;9.900;2022-11-30T06:23:29;27.92;;;18.70;;
39324;SDS011;25037;49.488;9.900;2022-11-30T06:25:55;30.25;;;18.95;;
39324;SDS011;25037;49.488;9.900;2022-11-30T06:28:21;28.77;;;19.10;;
39324;SDS011;25037;49.488;9.900;2022-11-30T06:30:46;26.33;;;17.15;;
39324;SDS011;25037;49.488;9.900;2022-11-30T06:33:12;30.58;;;18.98;;
39324;SDS011;25037;49.488;9.900;2022-11-30T06:35:43;32.00;;;19.23;;
39324;SDS011;25037;49.488;9.900;2022-11-30T06:38:10;33.33;;;20.50;;
39324;SDS011;25037;49.488;9.900;2022-11-30T06:40:36;41.67;;;22.35;;
39324;SDS011;25037;49.488;9.900;2022-11-30T06:43:01;34.58;;;20.40;;
39324;SDS011;25037;49.488;9.900;2022-11-30T06:45:27;39.63;;;21.00;;
39324;SDS011;25037;49.488;9.900;2022-11-30T06:47:56;31.85;;;20.02;;
39324;SDS011;25037;49.488;9.900;2022-11-30T06:50:22;36.17;;;20.98;;
39324;SDS011;25037;49.488;9.900;2022-11-30T06:52:48;37.95;;;21.70;;
39324;SDS011;25037;49.488;9.900;2022-11-30T06:55:13;39.97;;;23.40;;
39324;SDS011;25037;49.488;9.900;2022-11-30T06:57:39;38.67;;;22.15;;
39324;SDS011;25037;49.488;9.900;2022-11-30T07:00:05;40.95;;;23.02;;
39324;SDS011;25037;49.488;9.900;2022-11-30T07:02:32;38.42;;;22.08;;
39324;SDS011;25037;49.488;9.900;2022-11-30T07:04:57;35.45;;;20.52;;
39324;SDS011;25037;49.488;9.900;2022-11-30T07:07:23;40.00;;;21.67;;
39324;SDS011;25037;49.488;9.900;2022-11-30T07:09:49;38.53;;;22.17;;
39324;SDS011;25037;49.488;9.900;2022-11-30T07:12:15;42.40;;;22.27;;
39324;SDS011;25037;49.488;9.900;2022-11-30T07:14:41;40.05;;;21.52;;
39324;SDS011;25037;49.488;9.900;2022-11-30T07:17:06;39.13;;;20.58;;
39324;SDS011;25037;49.488;9.900;2022-11-30T07:19:32;38.55;;;21.10;;
39324;SDS011;25037;49.488;9.900;2022-11-30T07:22:01;39.88;;;21.10;;
39324;SDS011;25037;49.488;9.900;2022-11-30T07:24:26;37.42;;;20.98;;
39324;SDS011;25037;49.488;9.900;2022-11-30T07:27:11;36.75;;;20.00;;
39324;SDS011;25037;49.488;9.900;2022-11-30T07:29:36;39.33;;;20.20;;
39324;SDS011;25037;49.488;9.900;2022-11-30T07:32:02;32.55;;;19.83;;
39324;SDS011;25037;49.488;9.900;2022-11-30T07:34:27;37.60;;;20.27;;
39324;SDS011;25037;49.488;9.900;2022-11-30T07:36:53;34.45;;;19.63;;
39324;SDS011;25037;49.488;9.900;2022-11-30T07:39:18;35.03;;;19.48;;
39324;SDS011;25037;49.488;9.900;2022-11-30T07:41:44;36.50;;;20.27;;
39324;SDS011;25037;49.488;9.900;2022-11-30T07:44:10;34.45;;;19.00;;
39324;SDS011;25037;49.488;9.900;2022-11-30T07:46:36;38.88;;;21.08;;
39324;SDS011;25037;49.488;9.900;2022-11-30T07:49:03;39.97;;;21.30;;
39324;SDS011;25037;49.488;9.900;2022-11-30T07:51:32;33.05;;;19.05;;
39324;SDS011;25037;49.488;9.900;2022-11-30T07:53:58;33.70;;;20.15;;
39324;SDS011;25037;49.488;9.900;2022-11-30T07:56:24;30.63;;;18.20;;
39324;SDS011;25037;49.488;9.900;2022-11-30T07:58:52;31.77;;;18.38;;
39324;SDS011;25037;49.488;9.900;2022-11-30T08:01:21;31.27;;;17.75;;
39324;SDS011;25037;49.488;9.900;2022-11-30T08:03:49;31.85;;;19.02;;
39324;SDS011;25037;49.488;9.900;2022-11-30T08:06:16;32.75;;;19.38;;
39324;SDS011;25037;49.488;9.900;2022-11-30T08:08:46;29.92;;;18.65;;
39324;SDS011;25037;49.488;9.900;2022-11-30T08:11:14;29.92;;;17.50;;
39324;SDS011;25037;49.488;9.900;2022-11-30T08:13:41;29.33;;;18.67;;
39324;SDS011;25037;49.488;9.900;2022-11-30T08:16:08;35.70;;;18.88;;
39324;SDS011;25037;49.488;9.900;2022-11-30T08:18:38;33.55;;;19.70;;
39324;SDS011;25037;49.488;9.900;2022-11-30T08:21:04;32.80;;;18.83;;
39324;SDS011;25037;49.488;9.900;2022-11-30T08:23:33;36.80;;;20.95;;
39324;SDS011;25037;49.488;9.900;2022-11-30T08:26:01;33.10;;;20.20;;
39324;SDS011;25037;49.488;9.900;2022-11-30T08:28:28;32.22;;;18.42;;
39324;SDS011;25037;49.488;9.900;2022-11-30T08:30:58;32.47;;;19.42;;
39324;SDS011;25037;49.488;9.900;2022-11-30T08:33:25;34.17;;;21.23;;
39324;SDS011;25037;49.488;9.900;2022-11-30T08:35:51;32.28;;;19.00;;
39324;SDS011;25037;49.488;9.900;2022-11-30T08:38:19;38.78;;;21.33;;
39324;SDS011;25037;49.488;9.900;2022-11-30T08:40:45;33.53;;;19.42;;
39324;SDS011;25037;49.488;9.900;2022-11-30T08:43:10;32.00;;;18.75;;
39324;SDS011;25037;49.488;9.900;2022-11-30T08:45:36;38.28;;;21.02;;
39324;SDS011;25037;49.488;9.900;2022-11-30T08:48:02;30.65;;;18.67;;
39324;SDS011;25037;49.488;9.900;2022-11-30T08:50:28;35.97;;;20.10;;
39324;SDS011;25037;49.488;9.900;2022-11-30T08:52:54;37.78;;;21.67;;
39324;SDS011;25037;49.488;9.900;2022-11-30T08:55:20;31.67;;;19.08;;
39324;SDS011;25037;49.488;9.900;2022-11-30T08:57:45;37.83;;;21.13;;
39324;SDS011;25037;49.488;9.900;2022-11-30T09:00:11;36.95;;;21.17;;
39324;SDS011;25037;49.488;9.900;2022-11-30T09:02:37;37.22;;;20.73;;
39324;SDS011;25037;49.488;9.900;2022-11-30T09:05:03;36.60;;;19.40;;
39324;SDS011;25037;49.488;9.900;2022-11-30T09:07:28;38.10;;;21.30;;
39324;SDS011;25037;49.488;9.900;2022-11-30T09:09:54;34.85;;;21.90;;
39324;SDS011;25037;49.488;9.900;2022-11-30T09:12:20;32.22;;;19.75;;
39324;SDS011;25037;49.488;9.900;2022-11-30T09:14:46;39.03;;;21.00;;
39324;SDS011;25037;49.488;9.900;2022-11-30T09:17:12;33.55;;;19.83;;
39324;SDS011;25037;49.488;9.900;2022-11-30T09:19:38;33.38;;;19.88;;
39324;SDS011;25037;49.488;9.900;2022-11-30T09:22:04;36.20;;;21.20;;
39324;SDS011;25037;49.488;9.900;2022-11-30T09:24:29;32.38;;;19.30;;
39324;SDS011;25037;49.488;9.900;2022-11-30T09:26:55;31.73;;;20.25;;
39324;SDS011;25037;49.488;9.900;2022-11-30T09:29:21;36.83;;;19.83;;
39324;SDS011;25037;49.488;9.900;2022-11-30T09:31:47;31.02;;;18.90;;
39324;SDS011;25037;49.488;9.900;2022-11-30T09:34:13;35.13;;;20.23;;
39324;SDS011;25037;49.488;9.900;2022-11-30T09:36:38;30.67;;;19.10;;
39324;SDS011;25037;49.488;9.900;2022-11-30T09:39:04;32.10;;;19.30;;
39324;SDS011;25037;49.488;9.900;2022-11-30T09:49:38;29.13;;;18.30;;
39324;SDS011;25037;49.488;9.900;2022-11-30T09:52:13;35.03;;;21.02;;
39324;SDS011;25037;49.488;9.900;2022-11-30T09:54:43;28.52;;;17.70;;
39324;SDS011;25037;49.488;9.900;2022-11-30T09:59:56;31.45;;;20.02;;
39324;SDS011;25037;49.488;9.900;2022-11-30T10:02:27;30.90;;;18.83;;
39324;SDS011;25037;49.488;9.900;2022-11-30T10:04:54;28.80;;;17.75;;
39324;SDS011;25037;49.488;9.900;2022-11-30T10:10:41;27.05;;;17.50;;
39324;SDS011;25037;49.488;9.900;2022-11-30T10:27:10;25.65;;;15.18;;
39324;SDS011;25037;49.488;9.900;2022-11-30T10:29:49;23.83;;;14.77;;
39324;SDS011;25037;49.488;9.900;2022-11-30T10:32:19;24.92;;;15.32;;
39324;SDS011;25037;49.488;9.900;2022-11-30T10:34:52;26.35;;;15.90;;
39324;SDS011;25037;49.488;9.900;2022-11-30T10:37:21;26.83;;;17.55;;
39324;SDS011;25037;49.488;9.900;2022-11-30T10:39:58;32.10;;;17.92;;
39324;SDS011;25037;49.488;9.900;2022-11-30T10:42:35;32.13;;;17.88;;
39324;SDS011;25037;49.488;9.900;2022-11-30T10:45:15;28.60;;;17.27;;
39324;SDS011;25037;49.488;9.900;2022-11-30T10:47:45;32.70;;;18.70;;
39324;SDS011;25037;49.488;9.900;2022-11-30T10:50:15;28.67;;;17.52;;
39324;SDS011;25037;49.488;9.900;2022-11-30T10:52:50;29.33;;;17.92;;
39324;SDS011;25037;49.488;9.900;2022-11-30T10:55:18;30.55;;;18.15;;
39324;SDS011;25037;49.488;9.900;2022-11-30T10:57:46;29.52;;;17.27;;
39324;SDS011;25037;49.488;9.900;2022-11-30T11:00:15;31.48;;;19.23;;
39324;SDS011;25037;49.488;9.900;2022-11-30T11:02:45;30.95;;;17.45;;
39324;SDS011;25037;49.488;9.900;2022-11-30T11:10:15;32.60;;;18.95;;
39324;SDS011;25037;49.488;9.900;2022-11-30T11:12:49;28.48;;;17.67;;
39324;SDS011;25037;49.488;9.900;2022-11-30T11:17:42;25.25;;;15.88;;
39324;SDS011;25037;49.488;9.900;2022-11-30T11:20:28;27.90;;;16.30;;
39324;SDS011;25037;49.488;9.900;2022-11-30T11:22:54;26.20;;;16.17;;
39324;SDS011;25037;49.488;9.900;2022-11-30T11:25:41;29.25;;;17.00;;
39324;SDS011;25037;49.488;9.900;2022-11-30T11:28:11;25.58;;;15.85;;
39324;SDS011;25037;49.488;9.900;2022-11-30T11:30:40;23.90;;;14.65;;
39324;SDS011;25037;49.488;9.900;2022-11-30T11:38:39;22.95;;;14.63;;
39324;SDS011;25037;49.488;9.900;2022-11-30T11:41:06;23.45;;;14.95;;
39324;SDS011;25037;49.488;9.900;2022-11-30T11:44:01;22.30;;;14.00;;
39324;SDS011;25037;49.488;9.900;2022-11-30T11:46:37;22.23;;;13.65;;
39324;SDS011;25037;49.488;9.900;2022-11-30T11:49:25;20.95;;;13.52;;
39324;SDS011;25037;49.488;9.900;2022-11-30T11:52:00;20.27;;;13.05;;
39324;SDS011;25037;49.488;9.900;2022-11-30T11:57:15;19.45;;;13.13;;
39324;SDS011;25037;49.488;9.900;2022-11-30T11:59:54;21.10;;;12.70;;
39324;SDS011;25037;49.488;9.900;2022-11-30T12:05:06;19.60;;;12.65;;
39324;SDS011;25037;49.488;9.900;2022-11-30T12:10:28;19.30;;;11.68;;
39324;SDS011;25037;49.488;9.900;2022-11-30T12:12:55;18.70;;;12.13;;
39324;SDS011;25037;49.488;9.900;2022-11-30T12:15:25;19.05;;;11.40;;
39324;SDS011;25037;49.488;9.900;2022-11-30T12:18:31;16.13;;;10.80;;
39324;SDS011;25037;49.488;9.900;2022-11-30T12:20:54;18.23;;;11.18;;
39324;SDS011;25037;49.488;9.900;2022-11-30T12:31:23;14.32;;;9.88;;
39324;SDS011;25037;49.488;9.900;2022-11-30T12:37:28;13.93;;;9.18;;
39324;SDS011;25037;49.488;9.900;2022-11-30T12:40:32;13.10;;;8.13;;
39324;SDS011;25037;49.488;9.900;2022-11-30T12:43:26;13.40;;;8.40;;
39324;SDS011;25037;49.488;9.900;2022-11-30T12:45:58;15.02;;;8.88;;
39324;SDS011;25037;49.488;9.900;2022-11-30T12:51:45;12.63;;;7.63;;
39324;SDS011;25037;49.488;9.900;2022-11-30T12:54:41;13.48;;;8.35;;
39324;SDS011;25037;49.488;9.900;2022-11-30T12:57:25;13.57;;;8.63;;
39324;SDS011;25037;49.488;9.900;2022-11-30T13:08:24;15.90;;;9.68;;
39324;SDS011;25037;49.488;9.900;2022-11-30T13:11:04;13.77;;;9.10;;
39324;SDS011;25037;49.488;9.900;2022-11-30T13:13:36;13.70;;;8.57;;
39324;SDS011;25037;49.488;9.900;2022-11-30T13:16:12;13.25;;;8.07;;
39324;SDS011;25037;49.488;9.900;2022-11-30T13:18:39;14.05;;;9.13;;
39324;SDS011;25037;49.488;9.900;2022-11-30T13:21:24;13.40;;;8.50;;
39324;SDS011;25037;49.488;9.900;2022-11-30T13:24:10;12.60;;;8.23;;
39324;SDS011;25037;49.488;9.900;2022-11-30T13:27:04;15.55;;;8.98;;
39324;SDS011;25037;49.488;9.900;2022-11-30T13:32:24;14.40;;;9.25;;
39324;SDS011;25037;49.488;9.900;2022-11-30T13:34:50;15.77;;;9.40;;
39324;SDS011;25037;49.488;9.900;2022-11-30T13:37:16;16.42;;;9.63;;
39324;SDS011;25037;49.488;9.900;2022-11-30T13:39:55;17.00;;;10.10;;
39324;SDS011;25037;49.488;9.900;2022-11-30T13:44:46;20.23;;;11.73;;
39324;SDS011;25037;49.488;9.900;2022-11-30T13:47:28;20.98;;;12.73;;
39324;SDS011;25037;49.488;9.900;2022-11-30T13:49:57;21.20;;;11.82;;
39324;SDS011;25037;49.488;9.900;2022-11-30T13:58:17;19.08;;;10.50;;
39324;SDS011;25037;49.488;9.900;2022-11-30T14:01:00;18.27;;;10.88;;
39324;SDS011;25037;49.488;9.900;2022-11-30T14:03:29;17.35;;;10.15;;
39324;SDS011;25037;49.488;9.900;2022-11-30T14:08:59;16.45;;;10.00;;
39324;SDS011;25037;49.488;9.900;2022-11-30T14:11:38;15.35;;;10.05;;
39324;SDS011;25037;49.488;9.900;2022-11-30T14:17:16;13.98;;;8.80;;
39324;SDS011;25037;49.488;9.900;2022-11-30T14:19:48;17.77;;;9.77;;
39324;SDS011;25037;49.488;9.900;2022-11-30T14:22:16;18.25;;;10.32;;
39324;SDS011;25037;49.488;9.900;2022-11-30T14:24:43;15.90;;;9.10;;
39324;SDS011;25037;49.488;9.900;2022-11-30T14:27:18;14.85;;;9.02;;
39324;SDS011;25037;49.488;9.900;2022-11-30T14:29:47;17.38;;;10.23;;
39324;SDS011;25037;49.488;9.900;2022-11-30T14:32:18;14.05;;;8.82;;
39324;SDS011;25037;49.488;9.900;2022-11-30T14:34:51;14.95;;;8.70;;
39324;SDS011;25037;49.488;9.900;2022-11-30T14:39:56;17.10;;;8.80;;
39324;SDS011;25037;49.488;9.900;2022-11-30T14:42:30;16.25;;;9.43;;
39324;SDS011;25037;49.488;9.900;2022-11-30T14:44:56;15.52;;;8.60;;
39324;SDS011;25037;49.488;9.900;2022-11-30T14:47:32;20.60;;;8.82;;
39324;SDS011;25037;49.488;9.900;2022-11-30T14:50:00;16.45;;;9.30;;
39324;SDS011;25037;49.488;9.900;2022-11-30T14:52:45;14.88;;;9.13;;
39324;SDS011;25037;49.488;9.900;2022-11-30T14:56:13;17.63;;;9.90;;
39324;SDS011;25037;49.488;9.900;2022-11-30T15:01:26;17.65;;;9.90;;
39324;SDS011;25037;49.488;9.900;2022-11-30T15:03:51;20.55;;;10.52;;
39324;SDS011;25037;49.488;9.900;2022-11-30T15:06:19;20.73;;;11.13;;
39324;SDS011;25037;49.488;9.900;2022-11-30T15:08:50;17.77;;;10.13;;
39324;SDS011;25037;49.488;9.900;2022-11-30T15:11:18;18.35;;;10.00;;
39324;SDS011;25037;49.488;9.900;2022-11-30T15:13:48;18.75;;;10.88;;
39324;SDS011;25037;49.488;9.900;2022-11-30T15:16:17;19.02;;;10.02;;
39324;SDS011;25037;49.488;9.900;2022-11-30T15:18:45;17.48;;;9.45;;
39324;SDS011;25037;49.488;9.900;2022-11-30T15:21:13;18.02;;;9.93;;
39324;SDS011;25037;49.488;9.900;2022-11-30T15:23:44;18.63;;;9.57;;
39324;SDS011;25037;49.488;9.900;2022-11-30T15:26:11;17.00;;;8.95;;
39324;SDS011;25037;49.488;9.900;2022-11-30T15:28:44;17.30;;;9.52;;
39324;SDS011;25037;49.488;9.900;2022-11-30T15:31:16;18.05;;;10.27;;
39324;SDS011;25037;49.488;9.900;2022-11-30T15:33:43;14.63;;;8.50;;
39324;SDS011;25037;49.488;9.900;2022-11-30T15:36:11;17.67;;;10.65;;
39324;SDS011;25037;49.488;9.900;2022-11-30T15:38:38;19.40;;;10.35;;
39324;SDS011;25037;49.488;9.900;2022-11-30T15:41:06;21.05;;;11.18;;
39324;SDS011;25037;49.488;9.900;2022-11-30T15:43:43;19.30;;;10.35;;
39324;SDS011;25037;49.488;9.900;2022-11-30T15:49:00;15.70;;;10.05;;
39324;SDS011;25037;49.488;9.900;2022-11-30T15:51:57;16.50;;;9.55;;
39324;SDS011;25037;49.488;9.900;2022-11-30T15:54:43;16.08;;;10.00;;
39324;SDS011;25037;49.488;9.900;2022-11-30T15:57:13;21.80;;;11.90;;
39324;SDS011;25037;49.488;9.900;2022-11-30T15:59:39;22.67;;;12.55;;
39324;SDS011;25037;49.488;9.900;2022-11-30T16:02:05;23.52;;;13.15;;
39324;SDS011;25037;49.488;9.900;2022-11-30T16:07:26;20.42;;;11.00;;
39324;SDS011;25037;49.488;9.900;2022-11-30T16:10:13;18.58;;;10.73;;
39324;SDS011;25037;49.488;9.900;2022-11-30T16:12:48;16.77;;;9.82;;
39324;SDS011;25037;49.488;9.900;2022-11-30T16:17:43;20.05;;;10.68;;
39324;SDS011;25037;49.488;9.900;2022-11-30T16:20:12;23.75;;;12.45;;
39324;SDS011;25037;49.488;9.900;2022-11-30T16:22:42;20.83;;;12.40;;
39324;SDS011;25037;49.488;9.900;2022-11-30T16:25:28;26.60;;;14.27;;
39324;SDS011;25037;49.488;9.900;2022-11-30T16:27:53;28.48;;;15.35;;
39324;SDS011;25037;49.488;9.900;2022-11-30T16:30:19;28.08;;;15.95;;